Impacts TAF Board
For situational awareness. Not to be used for flight planning purposes.
IDs:

KMOB - Mobile Rgnl, AL, US

Issued at 1731 UTC 23 Jan 2019
Updated at 1810 UTC 23 Jan 2019
Potential Impact None Slight Moderate High
Time<<24/07Z 24/08Z 24/09Z 24/10Z 24/11Z 24/12Z 24/13Z 24/14Z 24/15Z 24/16Z 24/17Z 24/18Z 24/19Z>>
Type PRVL PRVL PRVL PRVL PRVL PRVL PRVL PRVL PRVL PRVL PRVL
VIS >6 >6 >6 >6 >6 >6 >6 >6 >6 >6 >6
CIG 15 15 15 15 15 -- -- -- -- -- --
Cover OVC OVC OVC OVC OVC SCT SCT SCT SCT SCT SCT
FltCat MVFR MVFR MVFR MVFR MVFR VFR VFR VFR VFR VFR VFR
WX -- -- -- -- -- -- -- -- -- -- --
WDir 330 330 330 330 330 340 340 340 340 340 340
WSpd 12 12 12 12 12 10 10 10 10 10 10
WGst 18 18 18 18 18 -- -- -- -- -- --
Raw TAF
KMOB 231731Z 2318/2418 16022G33KT 3SM RA BR OVC010
  TEMPO 2320/2324 VRB22G35KT 2SM TSRA OVC006CB
  FM240000 29017G25KT 5SM -RA BR OVC007
  FM240700 33012G18KT P6SM OVC015
  FM241200 34010KT P6SM SCT030


METAR Board
Radar Display
Forecast Discussion
For situational awareness. Not to be used for flight planning purposes.